createdAt,value
2022-09-17T00:01:05.496Z,62.90
2022-09-17T00:03:34.375Z,62.00
2022-09-17T00:06:09.802Z,62.30
2022-09-17T00:08:37.580Z,63.60
2022-09-17T00:11:29.853Z,64.00
2022-09-17T00:14:00.126Z,63.50
2022-09-17T00:16:31.376Z,62.90
2022-09-17T00:18:59.430Z,63.00
2022-09-17T00:21:26.769Z,63.20
2022-09-17T00:23:56.099Z,64.20
2022-09-17T00:26:23.248Z,64.30
2022-09-17T00:28:52.928Z,63.20
2022-09-17T00:31:20.343Z,63.20
2022-09-17T00:33:47.471Z,63.80
2022-09-17T00:36:14.288Z,65.10
2022-09-17T00:38:41.088Z,64.60
2022-09-17T00:41:08.400Z,67.50
2022-09-17T00:43:39.810Z,73.80
2022-09-17T00:46:22.850Z,79.80
2022-09-17T00:48:50.956Z,88.90
2022-09-17T00:51:22.816Z,93.30
2022-09-17T00:53:49.656Z,98.90
2022-09-17T00:56:19.914Z,99.90
2022-09-17T00:58:47.057Z,99.90
2022-09-17T01:01:14.382Z,99.90
2022-09-17T01:03:41.942Z,99.90
2022-09-17T01:06:50.036Z,99.90
2022-09-17T01:09:19.643Z,99.90
2022-09-17T01:11:55.343Z,99.90
2022-09-17T01:14:42.869Z,99.90
2022-09-17T01:17:39.514Z,99.90
2022-09-17T01:20:16.080Z,99.90
2022-09-17T01:22:54.873Z,99.90
2022-09-17T01:25:42.444Z,99.90
2022-09-17T01:28:29.345Z,99.90
2022-09-17T01:31:16.794Z,99.90
2022-09-17T01:33:57.451Z,99.90
2022-09-17T01:36:32.942Z,99.90
2022-09-17T01:39:35.384Z,99.90
2022-09-17T01:42:41.788Z,99.90
2022-09-17T01:45:22.452Z,99.90
2022-09-17T01:48:09.600Z,99.90
2022-09-17T01:51:14.799Z,99.90
2022-09-17T01:54:04.817Z,99.90
2022-09-17T01:56:38.877Z,99.90
2022-09-17T01:59:22.616Z,99.90
2022-09-17T02:01:53.721Z,99.90
2022-09-17T02:04:26.389Z,99.90
2022-09-17T02:07:20.855Z,99.90
2022-09-17T02:09:53.729Z,99.90
2022-09-17T02:12:28.848Z,99.90
2022-09-17T02:14:59.062Z,99.90
2022-09-17T02:17:35.003Z,99.90
2022-09-17T02:20:02.344Z,99.90
2022-09-17T02:22:52.599Z,99.90
2022-09-17T02:25:57.498Z,99.90
2022-09-17T02:28:31.167Z,99.90
2022-09-17T02:30:57.903Z,99.90
2022-09-17T02:33:26.344Z,99.90
2022-09-17T02:35:53.088Z,99.90
2022-09-17T02:38:25.661Z,99.90
2022-09-17T02:41:19.790Z,99.90
2022-09-17T02:44:03.705Z,99.90
2022-09-17T02:46:30.343Z,99.90
2022-09-17T02:49:25.355Z,99.90
2022-09-17T02:52:07.323Z,99.90
2022-09-17T02:54:45.975Z,99.90
2022-09-17T02:57:38.910Z,99.90
2022-09-17T03:00:14.675Z,99.90
2022-09-17T03:02:50.075Z,99.90
2022-09-17T03:05:21.527Z,99.90
2022-09-17T03:07:48.247Z,99.90
2022-09-17T03:10:16.039Z,99.90
2022-09-17T03:12:43.296Z,99.90
2022-09-17T03:15:10.417Z,99.90
2022-09-17T03:17:37.761Z,99.90
2022-09-17T03:20:05.254Z,99.90
2022-09-17T03:22:32.128Z,99.90
2022-09-17T03:24:58.784Z,99.90
2022-09-17T03:27:25.593Z,99.90
2022-09-17T03:29:52.283Z,99.90
2022-09-17T03:32:19.049Z,99.90
2022-09-17T03:34:46.998Z,99.90
2022-09-17T03:37:14.067Z,99.90
2022-09-17T03:39:40.711Z,99.90
2022-09-17T03:42:07.484Z,99.90
2022-09-17T03:44:34.228Z,99.90
2022-09-17T03:47:01.046Z,99.90
2022-09-17T03:49:27.745Z,99.90
2022-09-17T03:51:54.355Z,99.90
2022-09-17T03:54:21.012Z,99.90
2022-09-17T03:56:47.744Z,99.90
2022-09-17T03:59:14.618Z,99.90
2022-09-17T04:01:41.579Z,99.90
2022-09-17T04:04:08.610Z,99.90
2022-09-17T04:06:35.681Z,99.90
2022-09-17T04:09:04.810Z,99.90
2022-09-17T04:11:31.664Z,99.90
2022-09-17T04:13:58.950Z,99.90
2022-09-17T04:16:25.793Z,99.90
2022-09-17T04:18:52.491Z,99.90
2022-09-17T04:21:19.228Z,99.90
2022-09-17T04:23:45.878Z,99.90
2022-09-17T04:26:12.661Z,99.90
2022-09-17T04:28:39.416Z,99.90
2022-09-17T04:31:06.201Z,99.90
2022-09-17T04:33:32.984Z,99.90
2022-09-17T04:35:59.679Z,99.90
2022-09-17T04:38:26.427Z,99.90
2022-09-17T04:40:54.494Z,99.90
2022-09-17T04:43:21.159Z,99.90
2022-09-17T04:45:49.285Z,99.90
2022-09-17T04:48:16.077Z,99.90
2022-09-17T04:50:42.885Z,99.90
2022-09-17T04:53:09.943Z,99.90
2022-09-17T04:55:36.600Z,99.90
2022-09-17T04:58:04.429Z,99.90
2022-09-17T05:00:31.148Z,99.90
2022-09-17T05:02:57.852Z,99.90
2022-09-17T05:05:24.657Z,99.90
2022-09-17T05:07:51.328Z,99.90
2022-09-17T05:10:20.052Z,99.90
2022-09-17T05:12:51.936Z,99.90
2022-09-17T05:15:19.171Z,99.90
2022-09-17T05:17:46.586Z,99.90
2022-09-17T05:20:14.460Z,99.90
2022-09-17T05:22:43.383Z,99.90
2022-09-17T05:25:10.684Z,99.90
2022-09-17T05:27:39.126Z,99.90
2022-09-17T05:30:06.773Z,99.90
2022-09-17T05:32:33.822Z,99.90
2022-09-17T05:35:04.755Z,99.90
2022-09-17T05:37:32.231Z,99.90
2022-09-17T05:39:58.992Z,99.90
2022-09-17T05:42:25.750Z,99.90
2022-09-17T05:44:52.499Z,99.90
2022-09-17T05:47:19.209Z,99.90
2022-09-17T05:49:45.838Z,99.90
2022-09-17T05:52:12.565Z,99.90
2022-09-17T05:54:39.296Z,99.90
2022-09-17T05:57:06.287Z,99.90
2022-09-17T05:59:35.188Z,99.90
2022-09-17T06:02:02.217Z,99.90
2022-09-17T06:04:32.772Z,99.90
2022-09-17T06:07:05.379Z,99.90
2022-09-17T06:09:32.099Z,99.90
2022-09-17T06:11:58.769Z,99.90
2022-09-17T06:14:25.470Z,99.90
2022-09-17T06:16:52.249Z,99.90
2022-09-17T06:19:18.999Z,99.90
2022-09-17T06:21:47.220Z,99.90
2022-09-17T06:24:13.928Z,99.90
2022-09-17T06:26:40.552Z,99.90
2022-09-17T06:29:07.436Z,99.90
2022-09-17T06:31:34.245Z,99.90
2022-09-17T06:34:01.821Z,99.90
2022-09-17T06:36:28.569Z,99.90
2022-09-17T06:38:55.268Z,99.90
2022-09-17T06:41:22.054Z,99.90
2022-09-17T06:43:48.789Z,99.90
2022-09-17T06:46:15.583Z,99.90
2022-09-17T06:48:42.389Z,99.90
2022-09-17T06:51:10.946Z,99.90
2022-09-17T06:53:40.383Z,99.90
2022-09-17T06:56:08.664Z,99.90
2022-09-17T06:58:43.854Z,99.90
2022-09-17T07:01:12.424Z,99.90
2022-09-17T07:03:42.782Z,99.90
2022-09-17T07:06:10.784Z,99.90
2022-09-17T07:08:38.049Z,99.90
2022-09-17T07:11:04.936Z,99.90
2022-09-17T07:13:31.993Z,99.90
2022-09-17T07:16:00.814Z,99.90
2022-09-17T07:18:27.907Z,99.90
2022-09-17T07:20:56.096Z,99.90
2022-09-17T07:23:24.619Z,99.90
2022-09-17T07:25:55.848Z,99.90
2022-09-17T07:28:23.296Z,99.90
2022-09-17T07:30:51.336Z,99.90
2022-09-17T07:33:23.130Z,96.10
2022-09-17T07:36:03.598Z,84.50
2022-09-17T07:38:31.233Z,76.80
2022-09-17T07:41:06.146Z,68.20
2022-09-17T07:43:36.374Z,64.10
2022-09-17T07:46:04.404Z,62.20
2022-09-17T07:48:31.643Z,57.70
2022-09-17T07:50:58.832Z,56.20
2022-09-17T07:53:27.029Z,54.40
2022-09-17T07:55:55.303Z,54.00
2022-09-17T07:58:23.580Z,52.70
2022-09-17T08:00:50.893Z,52.40
2022-09-17T08:03:17.647Z,52.40
2022-09-17T08:05:44.454Z,51.60
2022-09-17T08:08:11.284Z,50.60
2022-09-17T08:10:37.975Z,51.10
2022-09-17T08:13:04.683Z,50.60
2022-09-17T08:15:31.347Z,51.10
2022-09-17T08:17:58.048Z,51.70
2022-09-17T08:20:26.179Z,64.50
2022-09-17T08:22:59.372Z,90.60
2022-09-17T08:25:26.182Z,97.50
2022-09-17T08:27:56.720Z,99.20
2022-09-17T08:30:23.992Z,99.90
2022-09-17T08:32:50.781Z,99.90
2022-09-17T08:35:17.810Z,99.90
2022-09-17T08:37:44.548Z,99.90
2022-09-17T08:40:20.958Z,99.90
2022-09-17T08:43:02.416Z,99.90
2022-09-17T08:45:30.046Z,99.90
2022-09-17T08:48:05.051Z,99.90
2022-09-17T08:50:33.976Z,99.90
2022-09-17T08:53:21.220Z,99.90
2022-09-17T08:55:50.919Z,99.90
2022-09-17T08:58:54.620Z,99.90
2022-09-17T09:01:31.500Z,99.90
2022-09-17T09:04:03.116Z,99.90
2022-09-17T09:06:37.795Z,99.90
2022-09-17T09:09:12.212Z,99.90
2022-09-17T09:11:40.457Z,99.90
2022-09-17T09:14:17.702Z,99.90
2022-09-17T09:16:47.813Z,99.90
2022-09-17T09:19:29.096Z,99.90
2022-09-17T09:22:14.699Z,99.90
2022-09-17T09:24:42.580Z,99.90
2022-09-17T09:27:38.725Z,99.90
2022-09-17T09:30:05.663Z,99.90
2022-09-17T09:32:51.615Z,99.90
2022-09-17T09:35:23.396Z,99.90
2022-09-17T09:38:02.361Z,99.90
2022-09-17T09:40:34.851Z,99.90
2022-09-17T09:43:11.793Z,99.90
2022-09-17T09:45:55.060Z,99.90
2022-09-17T09:48:47.030Z,99.90
2022-09-17T09:51:41.304Z,99.90
2022-09-17T09:54:40.979Z,99.90
2022-09-17T09:57:15.239Z,99.90
2022-09-17T09:59:41.932Z,99.90
2022-09-17T10:02:09.264Z,99.90
2022-09-17T10:04:36.020Z,99.90
2022-09-17T10:07:08.573Z,99.90
2022-09-17T10:09:37.821Z,99.90
2022-09-17T10:12:15.950Z,99.90
2022-09-17T10:14:45.427Z,99.90
2022-09-17T10:17:25.010Z,99.90
2022-09-17T10:20:08.312Z,99.90
2022-09-17T10:22:46.108Z,99.90
2022-09-17T10:25:32.298Z,99.90
2022-09-17T10:28:02.629Z,99.90
2022-09-17T10:30:29.737Z,99.90
2022-09-17T10:33:27.516Z,99.90
2022-09-17T10:36:07.776Z,99.90
2022-09-17T10:38:39.919Z,99.90
2022-09-17T10:41:16.824Z,99.90
2022-09-17T10:43:44.450Z,99.90
2022-09-17T10:46:15.958Z,99.90
2022-09-17T10:49:11.379Z,99.90
2022-09-17T10:51:38.917Z,99.90
2022-09-17T10:54:28.791Z,99.90
2022-09-17T10:56:58.853Z,99.90
2022-09-17T10:59:59.059Z,99.90
2022-09-17T11:03:00.814Z,99.90
2022-09-17T11:05:36.269Z,99.20
2022-09-17T11:08:02.809Z,97.60
2022-09-17T11:10:58.137Z,96.80
2022-09-17T11:13:57.008Z,97.20
2022-09-17T11:16:32.825Z,96.90
2022-09-17T11:19:14.521Z,96.40
2022-09-17T11:21:41.154Z,95.40
2022-09-17T11:24:19.420Z,95.40
2022-09-17T11:27:10.873Z,94.60
2022-09-17T11:29:55.304Z,93.40
2022-09-17T11:32:46.705Z,92.80
2022-09-17T11:35:21.834Z,93.20
2022-09-17T11:37:59.776Z,91.80
2022-09-17T11:40:48.467Z,92.90
2022-09-17T11:43:22.392Z,91.30
2022-09-17T11:46:05.084Z,91.20
2022-09-17T11:48:42.496Z,91.90
2022-09-17T11:51:22.552Z,91.40
2022-09-17T11:54:15.909Z,90.10
2022-09-17T11:56:45.873Z,90.10
2022-09-17T11:59:33.469Z,90.80
2022-09-17T12:02:15.398Z,90.10
2022-09-17T12:05:02.197Z,90.80
2022-09-17T12:07:48.651Z,83.80
2022-09-17T12:11:00.977Z,84.00
2022-09-17T12:13:34.729Z,80.70
2022-09-17T12:16:19.150Z,79.00
2022-09-17T12:19:01.227Z,70.00
2022-09-17T12:21:59.814Z,71.80
2022-09-17T12:24:29.092Z,66.00
2022-09-17T12:27:39.244Z,62.70
2022-09-17T12:30:22.600Z,59.30
2022-09-17T12:33:13.865Z,56.40
2022-09-17T12:36:14.651Z,53.50
2022-09-17T12:39:15.270Z,52.50
2022-09-17T12:42:19.550Z,54.60
2022-09-17T12:45:21.705Z,51.50
2022-09-17T12:48:15.876Z,48.90
2022-09-17T12:51:10.912Z,47.10
2022-09-17T12:54:09.010Z,47.10
2022-09-17T12:57:11.880Z,47.80
2022-09-17T12:59:53.495Z,47.60
2022-09-17T13:02:28.702Z,47.60
2022-09-17T13:05:10.590Z,48.00
2022-09-17T13:07:47.928Z,48.20
2022-09-17T13:10:40.897Z,47.50
2022-09-17T13:13:34.689Z,48.30
2022-09-17T13:16:23.851Z,47.20
2022-09-17T13:19:17.038Z,50.90
2022-09-17T13:21:51.455Z,47.70
2022-09-17T13:24:21.540Z,46.30
2022-09-17T13:26:48.859Z,45.50
2022-09-17T13:29:53.797Z,44.70
2022-09-17T13:32:32.550Z,44.50
2022-09-17T13:35:17.041Z,44.90
2022-09-17T13:37:52.825Z,45.40
2022-09-17T13:40:34.295Z,47.50
2022-09-17T13:43:04.081Z,47.30
2022-09-17T13:45:33.715Z,45.00
2022-09-17T13:48:08.251Z,45.90
2022-09-17T13:50:44.842Z,49.50
2022-09-17T13:53:14.503Z,52.80
2022-09-17T13:55:45.131Z,54.80
2022-09-17T13:58:20.929Z,53.50
2022-09-17T14:00:55.463Z,55.50
2022-09-17T14:03:31.173Z,57.60
2022-09-17T14:06:11.045Z,58.70
2022-09-17T14:09:06.791Z,61.40
2022-09-17T14:11:33.748Z,59.30
2022-09-17T14:14:03.212Z,60.50
2022-09-17T14:16:36.903Z,59.70
2022-09-17T14:19:15.935Z,60.20
2022-09-17T14:21:46.340Z,61.40
2022-09-17T14:24:36.147Z,61.80
2022-09-17T14:27:32.831Z,62.40
2022-09-17T14:30:21.871Z,64.20
2022-09-17T14:32:54.257Z,64.40
2022-09-17T14:35:29.003Z,64.10
2022-09-17T14:38:02.852Z,65.50
2022-09-17T14:40:34.236Z,63.40
2022-09-17T14:43:03.032Z,61.40
2022-09-17T14:45:33.569Z,61.80
2022-09-17T14:48:32.519Z,62.20
2022-09-17T14:51:18.437Z,63.90
2022-09-17T14:53:46.565Z,61.40
2022-09-17T14:56:16.528Z,61.30
2022-09-17T14:58:54.702Z,62.40
2022-09-17T15:01:27.477Z,61.80
2022-09-17T15:04:12.577Z,62.50
2022-09-17T15:06:43.623Z,60.30
2022-09-17T15:09:18.657Z,61.00
2022-09-17T15:11:50.073Z,60.40
2022-09-17T15:14:21.043Z,61.40
2022-09-17T15:16:49.984Z,62.10
2022-09-17T15:19:25.808Z,61.30
2022-09-17T15:21:55.088Z,60.80
2022-09-17T15:24:40.047Z,60.40
2022-09-17T15:27:27.282Z,62.20
2022-09-17T15:30:09.340Z,63.60
2022-09-17T15:32:37.764Z,62.20
2022-09-17T15:35:13.244Z,58.70
2022-09-17T15:38:05.706Z,53.50
2022-09-17T15:40:37.287Z,50.40
2022-09-17T15:43:34.625Z,47.60
2022-09-17T15:46:27.499Z,44.90
2022-09-17T15:48:55.381Z,43.00
2022-09-17T15:51:31.355Z,42.10
2022-09-17T15:54:04.937Z,42.80
2022-09-17T15:56:37.331Z,41.90
2022-09-17T15:59:31.065Z,41.50
2022-09-17T16:02:01.342Z,41.60
2022-09-17T16:04:33.386Z,41.40
2022-09-17T16:07:12.464Z,41.50
2022-09-17T16:09:42.407Z,40.70
2022-09-17T16:12:13.343Z,41.60
2022-09-17T16:14:45.570Z,42.20
2022-09-17T16:17:42.650Z,45.40
2022-09-17T16:20:23.389Z,48.20
2022-09-17T16:22:51.777Z,50.50
2022-09-17T16:25:24.497Z,52.30
2022-09-17T16:27:55.899Z,54.10
2022-09-17T16:30:24.223Z,54.90
2022-09-17T16:32:51.516Z,57.10
2022-09-17T16:35:21.022Z,57.00
2022-09-17T16:37:52.156Z,57.70
2022-09-17T16:40:19.925Z,57.60
2022-09-17T16:42:46.867Z,58.90
2022-09-17T16:45:14.129Z,59.70
2022-09-17T16:47:42.297Z,60.60
2022-09-17T16:50:14.930Z,61.90
2022-09-17T16:52:42.031Z,62.30
2022-09-17T16:55:09.479Z,61.50
2022-09-17T16:57:36.179Z,61.70
2022-09-17T17:00:04.193Z,62.50
2022-09-17T17:02:30.905Z,62.90
2022-09-17T17:04:57.899Z,63.80
2022-09-17T17:07:25.209Z,64.80
2022-09-17T17:09:51.970Z,65.90
2022-09-17T17:12:20.511Z,65.70
2022-09-17T17:14:50.043Z,66.40
2022-09-17T17:17:17.919Z,66.30
2022-09-17T17:19:46.504Z,68.10
2022-09-17T17:22:14.148Z,68.10
2022-09-17T17:24:40.980Z,68.20
2022-09-17T17:27:10.564Z,67.80
2022-09-17T17:29:37.299Z,68.00
2022-09-17T17:32:05.006Z,68.80
2022-09-17T17:34:32.068Z,69.20
2022-09-17T17:36:59.249Z,69.00
2022-09-17T17:39:25.946Z,70.80
2022-09-17T17:41:54.523Z,72.50
2022-09-17T17:44:21.316Z,72.10
2022-09-17T17:46:48.478Z,72.70
2022-09-17T17:49:15.209Z,73.70
2022-09-17T17:51:42.062Z,74.00
2022-09-17T17:54:08.857Z,72.90
2022-09-17T17:56:35.614Z,73.10
2022-09-17T17:59:02.287Z,73.50
2022-09-17T18:01:30.604Z,73.10
2022-09-17T18:04:03.037Z,68.10
2022-09-17T18:06:30.451Z,67.40
2022-09-17T18:08:57.743Z,68.30
2022-09-17T18:11:25.616Z,67.00
2022-09-17T18:13:54.917Z,67.30
2022-09-17T18:16:22.786Z,69.10
2022-09-17T18:18:50.529Z,70.10
2022-09-17T18:21:20.043Z,70.60
2022-09-17T18:23:47.892Z,71.40
2022-09-17T18:26:26.329Z,71.10
2022-09-17T18:28:53.550Z,67.00
2022-09-17T18:31:25.788Z,63.20
2022-09-17T18:34:04.107Z,60.20
2022-09-17T18:36:33.082Z,59.50
2022-09-17T18:39:29.972Z,58.90
2022-09-17T18:41:48.581Z,54.90
2022-09-17T18:44:15.764Z,52.50
2022-09-17T18:46:42.728Z,49.40
2022-09-17T18:49:09.695Z,48.30
2022-09-17T18:51:37.819Z,47.90
2022-09-17T18:54:04.500Z,47.70
2022-09-17T18:56:35.180Z,47.90
2022-09-17T18:59:07.160Z,47.20
2022-09-17T19:01:34.923Z,46.60
2022-09-17T19:04:01.952Z,47.10
2022-09-17T19:06:30.408Z,45.70
2022-09-17T19:09:00.608Z,45.90
2022-09-17T19:11:27.488Z,45.00
2022-09-17T19:13:54.272Z,45.10
2022-09-17T19:16:21.098Z,45.60
2022-09-17T19:18:48.012Z,44.80
2022-09-17T19:21:20.513Z,44.50
2022-09-17T19:23:49.659Z,44.60
2022-09-17T19:26:18.883Z,45.50
2022-09-17T19:28:46.026Z,44.30
2022-09-17T19:31:17.019Z,44.80
2022-09-17T19:33:44.661Z,44.80
2022-09-17T19:36:13.802Z,44.40
2022-09-17T19:38:40.945Z,44.20
2022-09-17T19:41:12.302Z,44.40
2022-09-17T19:43:39.610Z,45.20
2022-09-17T19:46:16.065Z,45.70
2022-09-17T19:48:51.600Z,45.40
2022-09-17T19:51:18.762Z,45.40
2022-09-17T19:53:45.963Z,45.80
2022-09-17T19:56:21.453Z,45.50
2022-09-17T19:58:48.545Z,45.20
2022-09-17T20:01:16.133Z,45.50
2022-09-17T20:03:45.090Z,45.00
2022-09-17T20:06:14.238Z,45.00
2022-09-17T20:08:46.994Z,46.50
2022-09-17T20:11:15.004Z,45.80
2022-09-17T20:13:41.949Z,45.00
2022-09-17T20:16:14.299Z,45.00
2022-09-17T20:18:41.665Z,45.70
2022-09-17T20:21:12.929Z,45.60
2022-09-17T20:23:39.970Z,45.60
2022-09-17T20:26:07.055Z,45.70
2022-09-17T20:28:34.703Z,45.50
2022-09-17T20:31:03.347Z,46.50
2022-09-17T20:33:30.286Z,46.40
2022-09-17T20:36:17.703Z,45.40
2022-09-17T20:41:32.119Z,46.00
2022-09-17T20:43:58.868Z,46.20
2022-09-17T20:46:29.302Z,46.80
2022-09-17T20:48:58.175Z,46.40
2022-09-17T20:51:27.381Z,46.10
2022-09-17T20:53:54.959Z,45.90
2022-09-17T20:56:24.495Z,45.80
2022-09-17T20:59:02.773Z,45.80
2022-09-17T21:01:34.400Z,45.90
2022-09-17T21:04:02.141Z,45.50
2022-09-17T21:06:31.871Z,45.70
2022-09-17T21:09:00.110Z,46.10
2022-09-17T21:11:27.911Z,45.60
2022-09-17T21:13:54.784Z,45.90
2022-09-17T21:16:21.792Z,46.90
2022-09-17T21:18:48.948Z,46.40
2022-09-17T21:21:17.809Z,46.20
2022-09-17T21:23:44.629Z,45.90
2022-09-17T21:26:20.591Z,46.30
2022-09-17T21:28:49.347Z,46.30
2022-09-17T21:31:19.827Z,46.40
2022-09-17T21:33:48.221Z,46.80
2022-09-17T21:36:17.546Z,46.10
2022-09-17T21:38:44.973Z,46.70
2022-09-17T21:41:14.147Z,46.10
2022-09-17T21:43:42.657Z,46.20
2022-09-17T21:46:14.825Z,46.00
2022-09-17T21:48:47.222Z,46.50
2022-09-17T21:51:23.588Z,46.20
2022-09-17T21:53:52.513Z,46.90
2022-09-17T21:56:20.619Z,46.50
2022-09-17T21:58:51.883Z,46.60
2022-09-17T22:01:21.680Z,46.50
2022-09-17T22:03:49.358Z,46.90
2022-09-17T22:06:19.468Z,47.10
2022-09-17T22:08:47.332Z,46.90
2022-09-17T22:11:19.003Z,47.10
2022-09-17T22:14:08.926Z,47.40
2022-09-17T22:16:38.139Z,48.40
2022-09-17T22:19:05.916Z,47.80
2022-09-17T22:21:46.008Z,47.30
2022-09-17T22:24:13.753Z,46.70
2022-09-17T22:26:43.609Z,46.80
2022-09-17T22:29:16.552Z,46.70
2022-09-17T22:31:44.314Z,46.10
2022-09-17T22:34:14.225Z,46.10
2022-09-17T22:36:41.344Z,47.00
2022-09-17T22:39:08.508Z,46.60
2022-09-17T22:41:37.238Z,46.20
2022-09-17T22:44:06.855Z,46.80
2022-09-17T22:46:41.557Z,47.30
2022-09-17T22:49:10.032Z,46.60
2022-09-17T22:51:37.445Z,46.60
2022-09-17T22:54:05.095Z,46.40
2022-09-17T22:56:33.355Z,46.50
2022-09-17T22:59:00.088Z,47.10
2022-09-17T23:01:29.869Z,46.10
2022-09-17T23:03:58.156Z,48.30
2022-09-17T23:06:27.645Z,48.50
2022-09-17T23:08:55.022Z,49.50
2022-09-17T23:11:28.143Z,49.70
2022-09-17T23:14:02.129Z,49.50
2022-09-17T23:16:33.240Z,49.50
2022-09-17T23:19:00.059Z,49.20
2022-09-17T23:21:26.805Z,48.10
2022-09-17T23:23:53.555Z,47.20
2022-09-17T23:26:23.384Z,47.10
2022-09-17T23:28:51.051Z,46.30
2022-09-17T23:31:23.842Z,45.70
2022-09-17T23:33:51.628Z,46.10
2022-09-17T23:36:21.731Z,45.60
2022-09-17T23:38:49.568Z,45.70
2022-09-17T23:41:19.057Z,45.80
2022-09-17T23:43:51.643Z,46.40
2022-09-17T23:46:19.992Z,46.50
2022-09-17T23:48:47.388Z,46.00
2022-09-17T23:51:16.378Z,45.90
2022-09-17T23:53:43.526Z,46.00
2022-09-17T23:56:15.708Z,45.60
2022-09-17T23:58:42.450Z,45.80
